Time;durP1;ratioP1;P1;durP2;ratioP2;P2;SDS_P1;SDS_P2;PMS_P1;PMS_P2;Temp;Humidity;BMP_temperature;BMP_pressure;BME280_temperature;BME280_humidity;BME280_pressure;Samples;Min_cycle;Max_cycle;Signal;HPM_P1;HPM_P2
2023/03/11 00:01:02;;;;;;;9.82;1.85;;;;;;;0.32;92.63;100680.16;4912511;29;20507;-66
2023/03/11 00:03:27;;;;;;;7.55;1.90;;;;;;;0.30;93.61;100684.28;4912513;29;20062;-66
2023/03/11 00:05:54;;;;;;;12.07;2.58;;;;;;;0.30;93.81;100681.72;4912849;29;20028;-66
2023/03/11 00:08:22;;;;;;;14.30;2.42;;;;;;;0.28;93.17;100686.75;4911104;29;20110;-66
2023/03/11 00:10:52;;;;;;;8.77;1.80;;;;;;;0.28;92.05;100680.75;4912951;29;20046;-66
2023/03/11 00:13:17;;;;;;;8.45;1.95;;;;;;;0.27;93.12;100681.53;4912778;29;20567;-65
2023/03/11 00:15:45;;;;;;;9.05;2.17;;;;;;;0.26;93.31;100685.78;4913537;29;20067;-66
2023/03/11 00:18:11;;;;;;;7.28;1.95;;;;;;;0.23;92.74;100695.81;4910570;29;20055;-66
2023/03/11 00:20:39;;;;;;;9.35;2.10;;;;;;;0.20;92.98;100695.63;4909488;29;20032;-66
2023/03/11 00:23:05;;;;;;;12.45;2.20;;;;;;;0.16;92.10;100699.69;4910335;29;20024;-66
2023/03/11 00:25:32;;;;;;;8.50;2.13;;;;;;;0.13;92.44;100696.94;4912257;29;20032;-66
2023/03/11 00:27:58;;;;;;;10.23;2.03;;;;;;;0.15;93.16;100707.28;4911579;29;20052;-66
2023/03/11 00:30:24;;;;;;;12.40;2.45;;;;;;;0.14;91.98;100708.94;4913352;29;20043;-66
2023/03/11 00:32:52;;;;;;;9.48;2.22;;;;;;;0.14;92.43;100702.94;4912232;29;20040;-65
2023/03/11 00:35:21;;;;;;;9.48;2.35;;;;;;;0.15;91.90;100714.97;4912746;29;20127;-66
2023/03/11 00:37:47;;;;;;;11.95;2.40;;;;;;;0.15;91.29;100718.41;4911367;29;20036;-66
2023/03/11 00:40:18;;;;;;;12.45;1.73;;;;;;;0.12;90.44;100717.34;4911595;29;20042;-66
2023/03/11 00:42:44;;;;;;;13.68;2.53;;;;;;;0.09;90.57;100729.97;4911897;29;20039;-66
2023/03/11 00:45:10;;;;;;;9.57;1.80;;;;;;;0.08;91.31;100731.63;4912567;29;20032;-66
2023/03/11 00:47:35;;;;;;;13.75;2.10;;;;;;;0.08;91.46;100736.75;4911611;29;20115;-66
2023/03/11 00:50:01;;;;;;;10.88;2.10;;;;;;;0.08;91.17;100731.63;4895396;29;20143;-66
2023/03/11 00:52:27;;;;;;;8.95;2.70;;;;;;;0.06;91.23;100730.66;4912146;29;20105;-66
2023/03/11 00:54:53;;;;;;;9.30;1.92;;;;;;;0.06;91.80;100733.22;4895061;29;20036;-66
2023/03/11 00:57:18;;;;;;;9.77;2.00;;;;;;;0.08;92.35;100734.19;4911247;29;20024;-66
2023/03/11 00:59:44;;;;;;;10.50;1.92;;;;;;;0.10;92.49;100734.28;4911948;29;20032;-66
2023/03/11 01:02:09;;;;;;;10.98;2.08;;;;;;;0.10;92.22;100731.72;4912401;29;20507;-66
2023/03/11 01:04:34;;;;;;;11.18;2.20;;;;;;;0.09;90.95;100745.34;4911539;29;20039;-66
2023/03/11 01:07:00;;;;;;;11.05;2.50;;;;;;;0.05;91.01;100749.34;4911760;29;20052;-66
2023/03/11 01:09:25;;;;;;;7.50;2.17;;;;;;;0.02;90.48;100751.72;4910328;29;20404;-66
2023/03/11 01:11:50;;;;;;;10.70;2.00;;;;;;;0.03;89.82;100761.19;4910937;29;20032;-66
2023/03/11 01:14:16;;;;;;;8.95;2.30;;;;;;;0.02;90.06;100764.53;4911170;29;20480;-66
2023/03/11 01:16:41;;;;;;;12.88;2.88;;;;;;;0.00;90.38;100771.25;4911841;29;20036;-66
2023/03/11 01:19:07;;;;;;;11.43;2.40;;;;;;;0.01;89.89;100756.75;4911514;29;20031;-66
2023/03/11 01:21:32;;;;;;;9.55;2.05;;;;;;;-0.02;90.26;100763.44;4911630;29;20479;-66
2023/03/11 01:23:57;;;;;;;13.32;3.20;;;;;;;-0.02;91.42;100775.38;4911203;29;20020;-66
2023/03/11 01:26:23;;;;;;;9.90;2.30;;;;;;;-0.04;91.28;100770.16;4910408;29;20404;-66
2023/03/11 01:28:48;;;;;;;11.43;2.40;;;;;;;-0.06;90.67;100768.25;4910312;29;20040;-66
2023/03/11 01:31:13;;;;;;;8.63;2.50;;;;;;;-0.07;90.32;100769.06;4911095;29;20070;-66
2023/03/11 01:33:38;;;;;;;8.20;2.35;;;;;;;-0.09;89.67;100766.38;4910617;29;20035;-66
2023/03/11 01:36:04;;;;;;;11.55;2.70;;;;;;;-0.08;90.53;100772.41;4911401;29;20035;-66
2023/03/11 01:38:29;;;;;;;8.80;2.60;;;;;;;-0.08;89.98;100772.41;4910468;29;20031;-66
2023/03/11 01:40:55;;;;;;;10.63;2.42;;;;;;;-0.07;90.66;100763.94;4910916;29;21194;-66
2023/03/11 01:43:35;;;;;;;13.27;2.67;;;;;;;-0.04;89.57;100761.59;4911662;29;20483;-66
2023/03/11 01:46:01;;;;;;;10.30;3.03;;;;;;;-0.03;89.91;100769.38;4911182;29;20031;-66
2023/03/11 01:48:27;;;;;;;12.05;3.15;;;;;;;-0.02;90.60;100773.69;4909807;29;20059;-65
2023/03/11 01:50:53;;;;;;;9.65;2.80;;;;;;;-0.01;90.97;100774.59;4911265;29;20036;-66
2023/03/11 01:53:18;;;;;;;9.77;2.83;;;;;;;0.03;92.04;100768.88;4910668;29;20624;-66
2023/03/11 01:55:45;;;;;;;9.10;3.28;;;;;;;0.01;91.05;100773.00;4911081;29;20047;-66
2023/03/11 01:58:16;;;;;;;8.73;2.72;;;;;;;-0.01;90.40;100769.47;4910476;29;20114;-66
2023/03/11 02:00:42;;;;;;;8.77;2.38;;;;;;;-0.02;90.76;100767.69;4909268;29;20032;-66
2023/03/11 02:03:14;;;;;;;13.50;2.95;;;;;;;-0.01;91.37;100772.03;4910230;29;20038;-66
2023/03/11 02:05:40;;;;;;;11.55;2.38;;;;;;;-0.01;91.25;100777.16;4910473;29;20031;-66
2023/03/11 02:08:06;;;;;;;9.55;2.40;;;;;;;-0.02;91.33;100775.38;4909682;29;20036;-69
2023/03/11 02:10:32;;;;;;;10.10;3.55;;;;;;;-0.06;91.34;100769.16;4910135;29;20103;-69
2023/03/11 02:12:57;;;;;;;13.75;2.90;;;;;;;-0.07;90.46;100767.38;4910296;29;20024;-69
2023/03/11 02:15:24;;;;;;;10.90;3.05;;;;;;;-0.08;90.81;100772.41;4910066;29;20042;-69
2023/03/11 02:17:50;;;;;;;9.80;3.40;;;;;;;-0.10;91.04;100780.00;4910835;29;20028;-69
2023/03/11 02:20:34;;;;;;;8.57;3.47;;;;;;;-0.13;91.68;100782.38;4910536;29;20475;-69
2023/03/11 02:23:00;;;;;;;14.77;3.63;;;;;;;-0.14;90.85;100778.03;4909039;29;20031;-69
2023/03/11 02:25:35;;;;;;;7.95;2.53;;;;;;;-0.13;90.90;100784.00;4910112;29;20503;-69
2023/03/11 02:28:04;;;;;;;11.93;3.70;;;;;;;-0.15;90.78;100786.47;4909932;29;20036;-69
2023/03/11 02:30:31;;;;;;;11.68;3.03;;;;;;;-0.17;91.26;100785.50;4910364;29;20118;-69
2023/03/11 02:32:58;;;;;;;10.43;2.53;;;;;;;-0.20;91.11;100786.19;4909993;29;20036;-69
2023/03/11 02:35:24;;;;;;;12.00;2.90;;;;;;;-0.21;90.63;100786.09;4911322;29;20059;-70
2023/03/11 02:37:52;;;;;;;8.27;2.70;;;;;;;-0.23;90.59;100785.97;4910265;29;20181;-66
2023/03/11 02:40:23;;;;;;;11.98;3.00;;;;;;;-0.23;90.85;100778.31;4910547;29;20047;-66
2023/03/11 02:42:52;;;;;;;9.90;2.70;;;;;;;-0.22;90.92;100779.19;4909727;29;20035;-66
2023/03/11 02:45:21;;;;;;;12.02;3.55;;;;;;;-0.23;90.88;100780.00;4910598;29;20035;-66
2023/03/11 02:47:47;;;;;;;9.60;2.80;;;;;;;-0.25;91.64;100774.75;4909934;29;20142;-66
2023/03/11 02:50:15;;;;;;;8.98;3.00;;;;;;;-0.24;91.52;100786.75;4892509;29;20510;-66
2023/03/11 02:52:40;;;;;;;8.85;2.53;;;;;;;-0.24;91.47;100783.31;4909647;29;20232;-66
2023/03/11 02:55:06;;;;;;;10.20;2.85;;;;;;;-0.28;91.08;100781.34;4910531;29;20645;-66
2023/03/11 02:57:32;;;;;;;12.18;2.70;;;;;;;-0.29;92.32;100777.00;4891808;29;20920;-66
2023/03/11 02:59:58;;;;;;;7.03;2.63;;;;;;;-0.27;92.24;100773.75;4910177;29;20488;-66
2023/03/11 03:02:24;;;;;;;12.32;2.58;;;;;;;-0.27;91.61;100773.75;4909004;29;20040;-66
2023/03/11 03:04:49;;;;;;;13.63;3.05;;;;;;;-0.27;92.47;100768.63;4910263;29;20454;-66
2023/03/11 03:07:14;;;;;;;7.28;2.63;;;;;;;-0.27;91.50;100778.88;4910391;29;20107;-66
2023/03/11 03:09:40;;;;;;;10.23;2.50;;;;;;;-0.27;92.01;100781.44;4909486;29;20441;-66
2023/03/11 03:12:05;;;;;;;12.98;2.70;;;;;;;-0.26;92.16;100778.09;4910776;29;20451;-66
2023/03/11 03:14:31;;;;;;;9.52;2.60;;;;;;;-0.26;92.23;100784.88;4909479;29;21559;-66
2023/03/11 03:16:56;;;;;;;7.97;2.50;;;;;;;-0.25;92.95;100789.22;4910581;29;20024;-65
2023/03/11 03:19:21;;;;;;;12.13;2.80;;;;;;;-0.25;92.09;100792.66;4910070;29;20024;-66
2023/03/11 03:21:47;;;;;;;10.85;2.90;;;;;;;-0.27;92.08;100806.16;4912846;29;20035;-65
2023/03/11 03:24:12;;;;;;;9.50;2.50;;;;;;;-0.31;92.14;100812.75;4912996;29;20046;-66
2023/03/11 03:26:37;;;;;;;5.88;2.58;;;;;;;-0.34;91.49;100814.22;4912137;29;20424;-66
2023/03/11 03:29:04;;;;;;;8.18;3.15;;;;;;;-0.41;91.71;100812.91;4912779;29;20032;-66
2023/03/11 03:31:29;;;;;;;10.32;2.85;;;;;;;-0.43;92.25;100823.06;4913030;29;20288;-66
2023/03/11 03:33:54;;;;;;;8.32;2.50;;;;;;;-0.44;92.08;100820.41;4911845;29;20316;-66
2023/03/11 03:36:20;;;;;;;9.07;2.85;;;;;;;-0.42;92.75;100829.06;4913426;29;20043;-66
2023/03/11 03:38:45;;;;;;;7.93;3.33;;;;;;;-0.42;92.79;100835.06;4895137;29;20521;-66
2023/03/11 03:41:13;;;;;;;11.23;2.85;;;;;;;-0.42;92.79;100839.28;4912980;29;20111;-66
2023/03/11 03:43:38;;;;;;;7.15;2.90;;;;;;;-0.46;92.97;100842.44;4911269;29;20464;-66
2023/03/11 03:46:04;;;;;;;9.65;2.92;;;;;;;-0.46;93.06;100839.91;4912205;29;20032;-66
2023/03/11 03:48:30;;;;;;;10.35;2.97;;;;;;;-0.48;92.87;100847.44;4912688;29;20034;-66
2023/03/11 03:51:03;;;;;;;10.35;3.17;;;;;;;-0.49;92.96;100845.69;4912451;29;20056;-66
2023/03/11 03:53:28;;;;;;;8.20;3.00;;;;;;;-0.47;93.36;100845.78;4912340;29;20111;-66
2023/03/11 03:55:53;;;;;;;11.38;3.00;;;;;;;-0.46;93.62;100845.00;4912931;29;20028;-66
2023/03/11 03:58:19;;;;;;;7.95;3.13;;;;;;;-0.44;93.53;100851.97;4913115;29;20059;-66
2023/03/11 04:00:44;;;;;;;9.18;3.00;;;;;;;-0.44;93.40;100849.44;4913359;29;20042;-66
2023/03/11 04:03:09;;;;;;;10.10;3.03;;;;;;;-0.45;93.44;100844.19;4911853;29;20476;-66
2023/03/11 04:05:35;;;;;;;8.10;2.72;;;;;;;-0.44;92.87;100853.66;4912031;29;20032;-66
2023/03/11 04:08:01;;;;;;;8.10;3.40;;;;;;;-0.44;92.81;100857.09;4913602;29;20387;-66
2023/03/11 04:10:26;;;;;;;8.38;2.80;;;;;;;-0.45;93.01;100860.47;4912571;29;20031;-66
2023/03/11 04:12:51;;;;;;;9.73;3.03;;;;;;;-0.45;93.52;100851.88;4912679;29;20080;-66
2023/03/11 04:15:17;;;;;;;7.93;2.80;;;;;;;-0.46;93.46;100865.50;4912452;29;20048;-66
2023/03/11 04:17:42;;;;;;;10.18;2.75;;;;;;;-0.47;93.19;100863.69;4913394;29;20058;-66
2023/03/11 04:20:11;;;;;;;11.05;3.05;;;;;;;-0.47;93.49;100861.16;4912321;29;20032;-66
2023/03/11 04:22:36;;;;;;;8.98;2.90;;;;;;;-0.48;93.26;100870.47;4894912;29;20092;-66
2023/03/11 04:25:02;;;;;;;7.60;2.58;;;;;;;-0.48;93.75;100861.91;4912695;29;20036;-66
2023/03/11 04:27:28;;;;;;;10.88;2.70;;;;;;;-0.49;92.96;100861.03;4912348;29;20079;-66
2023/03/11 04:29:53;;;;;;;10.07;2.88;;;;;;;-0.49;92.98;100861.03;4894272;29;20408;-66
2023/03/11 04:32:18;;;;;;;8.80;2.78;;;;;;;-0.50;93.01;100869.50;4911621;29;20052;-66
2023/03/11 04:34:43;;;;;;;9.77;2.80;;;;;;;-0.49;93.05;100867.81;4912656;29;20091;-66
2023/03/11 04:37:09;;;;;;;9.98;3.33;;;;;;;-0.48;93.32;100869.59;4912136;29;20036;-66
2023/03/11 04:39:34;;;;;;;9.70;3.17;;;;;;;-0.47;93.38;100872.25;4912344;29;20024;-66
2023/03/11 04:41:59;;;;;;;11.95;3.30;;;;;;;-0.46;92.75;100873.16;4910960;29;20365;-66
2023/03/11 04:44:25;;;;;;;12.07;3.13;;;;;;;-0.46;93.34;100876.59;4912291;29;20095;-66
2023/03/11 04:46:51;;;;;;;7.68;2.90;;;;;;;-0.47;93.79;100867.13;4912231;29;20036;-66
2023/03/11 04:49:16;;;;;;;7.97;2.90;;;;;;;-0.48;93.30;100867.91;4912590;29;20028;-66
2023/03/11 04:51:41;;;;;;;9.60;2.63;;;;;;;-0.50;92.62;100876.28;4911436;29;20028;-66
2023/03/11 04:54:07;;;;;;;9.45;2.90;;;;;;;-0.54;92.89;100878.66;4911892;29;20428;-66
2023/03/11 04:56:33;;;;;;;7.38;2.90;;;;;;;-0.55;92.90;100870.84;4912104;29;20575;-66
2023/03/11 04:58:58;;;;;;;9.77;2.90;;;;;;;-0.56;93.36;100869.09;4912064;29;20103;-66
2023/03/11 05:01:23;;;;;;;8.63;2.67;;;;;;;-0.58;93.73;100874.09;4911210;29;20488;-66
2023/03/11 05:03:49;;;;;;;9.50;2.70;;;;;;;-0.62;93.69;100881.44;4912339;29;20403;-66
2023/03/11 05:06:14;;;;;;;10.10;3.08;;;;;;;-0.67;93.80;100876.00;4912143;29;20132;-66
2023/03/11 05:08:40;;;;;;;8.20;2.97;;;;;;;-0.70;94.40;100878.34;4912097;29;20035;-67
2023/03/11 05:11:05;;;;;;;8.95;2.78;;;;;;;-0.73;93.16;100871.34;4911952;29;20034;-66
2023/03/11 05:13:31;;;;;;;8.90;2.50;;;;;;;-0.75;93.36;100882.28;4911219;29;20424;-66
2023/03/11 05:15:56;;;;;;;10.88;2.95;;;;;;;-0.76;93.62;100883.94;4911425;29;20168;-66
2023/03/11 05:18:21;;;;;;;8.25;2.65;;;;;;;-0.77;94.03;100882.19;4911826;29;20127;-66
2023/03/11 05:20:47;;;;;;;9.48;3.38;;;;;;;-0.77;93.93;100883.81;4911487;29;20040;-66
2023/03/11 05:23:12;;;;;;;10.02;2.90;;;;;;;-0.77;94.16;100892.41;4909862;29;20114;-66
2023/03/11 05:25:37;;;;;;;7.45;2.83;;;;;;;-0.78;94.03;100887.16;4893798;29;20039;-66
2023/03/11 05:28:03;;;;;;;10.30;3.13;;;;;;;-0.79;94.02;100883.72;4910982;29;20133;-66
2023/03/11 05:30:28;;;;;;;8.77;2.80;;;;;;;-0.80;94.19;100901.53;4911847;29;20132;-66
2023/03/11 05:32:55;;;;;;;8.55;2.88;;;;;;;-0.82;94.72;100898.88;4892305;29;20400;-66
2023/03/11 05:38:01;;;;;;;9.95;3.20;;;;;;;-0.86;95.00;100908.78;4960036;23;20055;-96
2023/03/11 05:40:32;;;;;;;8.57;2.95;;;;;;;-0.89;94.73;100910.31;4908947;29;20162;-96
2023/03/11 05:42:58;;;;;;;6.43;2.67;;;;;;;-0.93;94.97;100908.34;4897797;29;20027;-96
2023/03/11 05:45:24;;;;;;;10.05;3.17;;;;;;;-0.94;94.97;100918.44;4900552;29;20504;-96
2023/03/11 05:47:51;;;;;;;9.55;3.13;;;;;;;-1.01;95.34;100911.13;4892657;29;20123;-96
2023/03/11 05:50:17;;;;;;;7.50;2.67;;;;;;;-1.06;95.01;100916.81;4902105;29;20028;-96
2023/03/11 05:52:44;;;;;;;7.82;3.10;;;;;;;-1.06;95.03;100923.59;4897013;29;20064;-96
2023/03/11 05:55:11;;;;;;;9.50;2.97;;;;;;;-1.06;95.53;100921.03;4899582;29;20096;-96
2023/03/11 05:57:48;;;;;;;7.82;3.05;;;;;;;-1.05;95.65;100923.69;4906954;29;20035;-96
2023/03/11 06:00:19;;;;;;;7.05;2.90;;;;;;;-1.00;94.93;100920.56;4898133;29;20060;-95
2023/03/11 06:02:47;;;;;;;7.30;3.17;;;;;;;-0.99;95.38;100935.16;4896320;29;20044;-95
2023/03/11 06:05:15;;;;;;;10.40;3.58;;;;;;;-1.00;95.38;100926.59;4898779;29;20032;-95
2023/03/11 06:07:41;;;;;;;8.45;3.00;;;;;;;-1.02;95.35;100933.25;4896625;29;20035;-95
2023/03/11 06:10:07;;;;;;;7.68;3.03;;;;;;;-1.01;94.84;100929.94;4893224;29;20036;-95
2023/03/11 06:12:37;;;;;;;7.22;3.33;;;;;;;-1.01;94.73;100935.03;4897264;29;20034;-94
2023/03/11 06:15:05;;;;;;;8.38;3.40;;;;;;;-1.00;95.00;100939.38;4895298;29;20027;-95
2023/03/11 06:17:33;;;;;;;7.45;3.00;;;;;;;-1.01;95.12;100940.16;4897813;29;20032;-95
2023/03/11 06:20:03;;;;;;;9.38;3.85;;;;;;;-1.03;94.58;100934.03;4892365;29;20489;-96
2023/03/11 06:22:29;;;;;;;7.25;3.28;;;;;;;-1.03;94.99;100940.81;4901196;29;20045;-95
2023/03/11 06:24:56;;;;;;;12.70;3.58;;;;;;;-1.03;95.25;100948.50;4898914;29;20032;-95
2023/03/11 06:27:27;;;;;;;8.18;3.20;;;;;;;-1.04;94.72;100955.28;4897773;29;20023;-95
2023/03/11 06:29:53;;;;;;;8.48;3.10;;;;;;;-1.05;94.47;100964.59;4915739;29;20126;-94
2023/03/11 06:32:22;;;;;;;10.55;3.50;;;;;;;-1.07;95.22;100960.19;4914203;29;20087;-95
2023/03/11 06:34:53;;;;;;;9.18;3.72;;;;;;;-1.07;95.35;100958.50;4895411;29;20418;-94
2023/03/11 06:37:19;;;;;;;25.98;4.10;;;;;;;-1.08;95.46;100954.16;4896193;29;20059;-95
2023/03/11 06:39:52;;;;;;;8.57;3.10;;;;;;;-1.08;95.26;100966.94;4897526;29;20040;-95
2023/03/11 06:42:17;;;;;;;10.00;3.63;;;;;;;-1.05;95.06;100973.94;4897871;29;20040;-94
2023/03/11 06:44:47;;;;;;;9.60;3.55;;;;;;;-1.06;95.00;100974.72;4892746;29;20024;-94
2023/03/11 06:47:15;;;;;;;9.10;3.28;;;;;;;-1.04;95.38;100980.84;4906904;29;20509;-96
2023/03/11 06:49:43;;;;;;;9.05;3.50;;;;;;;-1.05;95.67;100984.19;4909235;29;20051;-95
2023/03/11 06:52:29;;;;;;;11.50;3.67;;;;;;;-1.02;95.93;100991.19;4892146;29;20524;-94
2023/03/11 06:54:57;;;;;;;11.40;3.75;;;;;;;-1.02;96.08;100992.06;4895486;29;20036;-95
2023/03/11 06:57:22;;;;;;;10.70;3.63;;;;;;;-1.00;95.78;100999.84;4901191;29;20120;-95
2023/03/11 06:59:58;;;;;;;;;;;;;;;;;;;;;
2023/03/11 07:02:24;;;;;;;8.90;3.75;;;;;;;-0.96;96.01;101014.66;4912503;29;20394;-95
2023/03/11 07:04:52;;;;;;;10.75;4.38;;;;;;;-0.96;95.45;101019.75;4900422;29;20028;-95
2023/03/11 07:07:20;;;;;;;9.18;3.75;;;;;;;-0.93;95.22;101027.66;4929453;29;20016;-96
2023/03/11 07:09:49;;;;;;;8.20;3.70;;;;;;;-0.92;95.48;101022.66;4918743;29;20012;-96
2023/03/11 07:12:21;;;;;;;12.55;3.60;;;;;;;-0.91;95.30;101027.00;4922418;29;20062;-96
2023/03/11 07:15:02;;;;;;;8.65;3.58;;;;;;;-0.86;95.17;101023.88;4909264;29;20035;-96
2023/03/11 07:17:34;;;;;;;9.57;4.05;;;;;;;-0.88;94.88;101026.34;4919643;29;20032;-96
2023/03/11 07:20:11;;;;;;;8.90;3.60;;;;;;;-0.84;95.25;101035.09;4924621;29;20031;-96
2023/03/11 07:22:40;;;;;;;10.05;4.07;;;;;;;-0.86;94.35;101031.56;4928048;29;20075;-96
2023/03/11 07:25:16;;;;;;;10.15;3.95;;;;;;;-0.87;94.80;101035.75;4923890;29;20039;-96
2023/03/11 07:27:43;;;;;;;9.15;4.20;;;;;;;-0.90;94.64;101041.56;4913727;29;20054;-96
2023/03/11 07:30:16;;;;;;;8.65;4.40;;;;;;;-0.90;95.00;101039.00;4926860;29;20075;-96
2023/03/11 07:32:41;;;;;;;10.05;4.60;;;;;;;-0.86;95.22;101044.34;4943048;23;20048;-69
2023/03/11 07:37:35;;;;;;;8.65;4.20;;;;;;;-0.78;94.74;101048.31;5101914;23;21071;-69
2023/03/11 07:40:16;;;;;;;7.88;3.80;;;;;;;-0.78;94.76;101045.78;5231587;23;20444;31
2023/03/11 07:42:42;;;;;;;9.20;4.32;;;;;;;-0.75;94.95;101052.00;5172733;23;20528;-64
2023/03/11 07:45:08;;;;;;;11.10;4.38;;;;;;;-0.69;95.39;101051.56;5160888;23;20054;-65
2023/03/11 07:47:33;;;;;;;11.75;4.57;;;;;;;-0.60;95.84;101052.22;5316803;23;20056;-65
2023/03/11 07:49:58;;;;;;;10.85;4.47;;;;;;;-0.56;95.19;101051.66;5109931;23;20051;-65
2023/03/11 07:52:24;;;;;;;10.48;4.50;;;;;;;-0.53;95.74;101059.56;5240566;23;20023;-70
2023/03/11 08:00:01;;;;;;;8.85;4.03;;;;;;;-0.38;94.44;101070.03;5084083;23;20164;-69
2023/03/11 08:02:26;;;;;;;12.25;4.53;;;;;;;-0.31;94.70;101067.88;4963076;23;20055;-65
2023/03/11 08:04:52;;;;;;;11.52;4.40;;;;;;;-0.24;94.41;101073.53;5018110;23;20056;-69
2023/03/11 08:07:17;;;;;;;10.68;4.10;;;;;;;-0.18;94.34;101068.84;5253750;23;20048;-65
2023/03/11 08:09:42;;;;;;;11.02;5.05;;;;;;;-0.09;95.22;101067.72;5077150;23;20404;-65
2023/03/11 08:12:08;;;;;;;12.07;4.75;;;;;;;0.03;95.12;101073.72;4909804;29;20035;-65
2023/03/11 08:14:33;;;;;;;10.75;4.35;;;;;;;0.13;94.76;101072.66;5020557;23;20118;-69
2023/03/11 08:19:30;;;;;;;11.88;4.35;;;;;;;0.40;96.12;101080.47;5080030;23;20052;-69
2023/03/11 08:22:05;;;;;;;8.50;3.95;;;;;;;0.52;95.14;101078.72;4969736;23;20048;-96
2023/03/11 08:24:33;;;;;;;11.98;4.00;;;;;;;0.67;95.29;101077.22;4903987;29;20089;-96
2023/03/11 08:27:08;;;;;;;11.38;4.22;;;;;;;0.81;95.02;101077.22;4911323;29;20067;-96
2023/03/11 08:29:42;;;;;;;8.95;4.20;;;;;;;0.97;95.30;101063.75;4904463;29;20040;-96
2023/03/11 08:32:14;;;;;;;8.82;4.15;;;;;;;1.13;94.76;101069.09;4914546;29;20039;-96
2023/03/11 08:38:41;;;;;;;9.13;3.53;;;;;;;1.49;92.85;101081.63;4945390;29;20091;-97
2023/03/11 08:41:39;;;;;;;8.63;3.47;;;;;;;1.64;91.65;101089.44;4915900;29;20044;-96
2023/03/11 08:44:04;;;;;;;8.55;3.03;;;;;;;1.75;86.08;101093.56;5098614;23;20068;-71
2023/03/11 08:46:32;;;;;;;10.75;3.15;;;;;;;1.83;87.60;101092.38;5083936;23;20058;-72
2023/03/11 08:48:59;;;;;;;9.38;3.10;;;;;;;1.95;87.28;101086.22;5237945;23;20654;-66
2023/03/11 08:53:53;;;;;;;5.80;2.50;;;;;;;2.18;87.27;101095.34;4949156;23;20055;-71
2023/03/11 08:56:20;;;;;;;9.45;2.40;;;;;;;2.30;84.03;101102.94;5071787;23;20027;-66
2023/03/11 09:01:19;;;;;;;7.55;2.50;;;;;;;2.52;83.60;101103.44;5116336;23;20056;-66
2023/03/11 09:03:45;;;;;;;5.22;2.00;;;;;;;2.64;81.82;101112.69;5332970;23;20151;-67
2023/03/11 09:11:17;;;;;;;7.90;1.67;;;;;;;2.81;77.62;101114.59;5194718;23;20068;-67
2023/03/11 09:13:43;;;;;;;7.70;1.48;;;;;;;2.87;73.37;101106.31;5141075;23;20278;-66
2023/03/11 09:16:23;;;;;;;4.88;1.50;;;;;;;2.90;71.11;101111.66;4957257;23;20036;-96
2023/03/11 09:18:49;;;;;;;6.63;1.90;;;;;;;2.92;74.63;101113.50;4912406;29;20100;-96
2023/03/11 09:21:25;;;;;;;4.68;1.70;;;;;;;3.04;78.06;101115.03;4917408;29;20048;-96
2023/03/11 09:24:28;;;;;;;4.70;1.98;;;;;;;3.16;76.67;101115.75;4915716;29;20051;-96
2023/03/11 09:27:01;;;;;;;4.55;1.58;;;;;;;3.30;75.48;101130.31;4907532;29;20043;-96
2023/03/11 09:29:38;;;;;;;4.07;1.17;;;;;;;3.43;72.58;101121.59;4893382;29;20129;-96
2023/03/11 09:32:04;;;;;;;4.57;1.30;;;;;;;3.54;72.43;101122.19;4905145;29;20027;-96
2023/03/11 09:34:44;;;;;;;5.95;1.20;;;;;;;3.61;72.28;101133.75;4900880;29;20031;-96
2023/03/11 09:37:18;;;;;;;5.30;1.50;;;;;;;3.68;72.45;101137.53;4901714;29;20111;-96
2023/03/11 09:39:50;;;;;;;5.28;1.10;;;;;;;3.73;70.20;101137.00;4911647;29;20060;-96
2023/03/11 09:42:50;;;;;;;5.28;0.93;;;;;;;3.83;74.31;101134.13;4917434;29;20024;-96
2023/03/11 09:46:15;;;;;;;4.82;0.93;;;;;;;4.00;72.16;101129.03;4918549;29;20023;-96
2023/03/11 09:49:28;;;;;;;4.38;0.90;;;;;;;4.20;72.69;101135.28;4868621;29;20714;-96
2023/03/11 09:54:27;;;;;;;2.40;0.90;;;;;;;4.29;65.45;101127.16;5191771;23;20052;-66
2023/03/11 09:56:53;;;;;;;4.55;1.00;;;;;;;4.26;66.32;101134.69;5241158;23;20062;-67
2023/03/11 09:59:48;;;;;;;3.75;0.95;;;;;;;4.23;70.75;101126.78;5198266;23;20119;-96
2023/03/11 10:02:26;;;;;;;5.25;1.17;;;;;;;4.25;67.16;101136.41;5032101;23;20109;31
2023/03/11 10:07:24;;;;;;;4.60;1.20;;;;;;;4.20;67.34;101134.38;5097681;23;20453;-66
2023/03/11 10:09:59;;;;;;;4.38;1.20;;;;;;;4.22;69.19;101119.88;5163012;23;20069;-74
2023/03/11 10:15:24;;;;;;;6.65;1.10;;;;;;;4.20;73.03;101130.13;5293737;23;20063;-69
2023/03/11 10:20:33;;;;;;;4.00;1.00;;;;;;;4.10;73.49;101138.13;4932587;23;20040;-96
2023/03/11 10:23:35;;;;;;;5.95;1.38;;;;;;;4.04;70.96;101137.81;4899455;29;20119;-96
2023/03/11 10:26:21;;;;;;;4.10;1.30;;;;;;;4.00;73.11;101136.78;4909291;29;20082;-96
2023/03/11 10:29:27;;;;;;;3.28;1.20;;;;;;;4.06;73.49;101139.69;4912911;29;20032;-96
2023/03/11 10:32:05;;;;;;;4.63;1.20;;;;;;;4.13;70.55;101148.66;4895238;29;20036;-96
2023/03/11 10:34:51;;;;;;;3.75;1.10;;;;;;;4.14;70.77;101151.31;4897892;29;20070;-96
2023/03/11 10:37:37;;;;;;;5.35;1.67;;;;;;;4.15;71.22;101152.19;4889337;29;20020;-95
2023/03/11 10:40:31;;;;;;;6.53;1.10;;;;;;;4.18;68.51;101150.63;4893468;29;20087;-96
2023/03/11 10:43:04;;;;;;;4.25;1.13;;;;;;;4.31;69.10;101152.19;5017887;23;20060;-96
2023/03/11 10:45:47;;;;;;;;;;;;;;;;;;;;;
2023/03/11 10:48:28;;;;;;;3.75;1.40;;;;;;;4.54;71.74;101149.97;4922157;29;20099;-96
2023/03/11 10:51:05;;;;;;;5.13;1.30;;;;;;;4.58;68.09;101154.47;4920257;29;20478;-96
2023/03/11 10:53:30;;;;;;;3.83;1.30;;;;;;;4.53;66.58;101150.75;4900868;29;20105;-96
2023/03/11 10:56:02;;;;;;;4.65;1.70;;;;;;;4.51;68.60;101144.66;4907390;29;20830;-96
2023/03/11 10:58:29;;;;;;;4.55;1.85;;;;;;;4.60;70.61;101150.28;4918909;29;20070;-96
2023/03/11 11:01:17;;;;;;;4.93;1.20;;;;;;;4.75;69.92;101149.31;4918636;29;20028;-96
2023/03/11 11:03:54;;;;;;;3.65;1.05;;;;;;;4.91;67.43;101146.72;4913894;29;20068;-96
2023/03/11 11:06:37;;;;;;;5.22;1.50;;;;;;;5.00;65.10;101139.44;4917888;29;20033;-96
2023/03/11 11:14:16;;;;;;;3.72;1.20;;;;;;;4.96;60.64;101145.25;5254357;23;20419;-65
2023/03/11 11:19:17;;;;;;;6.05;1.20;;;;;;;4.86;62.88;101145.59;4983096;23;20711;-65
2023/03/11 11:21:51;;;;;;;8.00;1.60;;;;;;;4.85;63.40;101147.31;5124209;23;20048;-65
2023/03/11 11:24:26;;;;;;;6.00;1.30;;;;;;;4.84;65.21;101154.97;5072680;23;20098;-65
2023/03/11 11:27:19;;;;;;;6.88;1.40;;;;;;;4.83;66.88;101146.31;5075247;23;20614;-65
2023/03/11 11:32:19;;;;;;;4.45;1.48;;;;;;;4.88;66.36;101149.13;4899539;29;20056;-65
2023/03/11 11:34:58;;;;;;;4.85;1.40;;;;;;;4.99;67.98;101147.13;4900316;29;20433;-65
2023/03/11 11:40:22;;;;;;;4.20;1.20;;;;;;;5.18;67.51;101151.50;5155274;23;20060;-65
2023/03/11 11:42:55;;;;;;;4.10;1.20;;;;;;;5.28;65.76;101150.28;4922947;29;20040;-65
2023/03/11 11:45:21;;;;;;;5.63;1.63;;;;;;;5.37;66.18;101154.22;4954936;23;20546;-65
2023/03/11 11:50:35;;;;;;;5.68;1.40;;;;;;;5.55;61.35;101155.94;4942248;23;20048;-65
2023/03/11 11:53:32;;;;;;;5.70;1.30;;;;;;;5.50;61.54;101153.09;4955710;23;20083;-96
2023/03/11 11:58:33;;;;;;;6.30;1.50;;;;;;;5.42;59.64;101148.38;4744864;23;20054;-95
2023/03/11 12:01:14;;;;;;;5.20;1.30;;;;;;;5.42;59.29;101153.53;5104652;23;20031;-65
2023/03/11 12:06:38;;;;;;;4.93;1.92;;;;;;;5.51;60.02;101147.13;4928510;23;20051;-65
2023/03/11 12:09:04;;;;;;;;;;;;;;;5.67;66.40;101147.88;5032902;23;20047;-96
2023/03/11 12:11:43;;;;;;;4.95;1.40;;;;;;;5.70;59.76;101141.16;4900386;29;19927;-96
2023/03/11 12:14:08;;;;;;;4.43;1.52;;;;;;;5.70;56.78;101146.31;4915401;29;20031;-96
2023/03/11 12:16:47;;;;;;;5.95;1.40;;;;;;;5.66;57.40;101133.19;4899654;29;20604;-96
2023/03/11 12:19:50;;;;;;;5.88;1.40;;;;;;;5.65;57.49;101142.63;4913519;29;20164;-96
2023/03/11 12:30:58;;;;;;;6.72;1.67;;;;;;;6.27;57.09;101148.13;5156182;23;20048;-65
2023/03/11 12:33:29;;;;;;;5.03;1.30;;;;;;;6.37;55.11;101140.00;4906874;29;20040;-65
2023/03/11 12:35:57;;;;;;;2.92;1.13;;;;;;;6.38;55.78;101136.56;5059586;23;20585;-65
2023/03/11 12:41:02;;;;;;;5.28;1.50;;;;;;;6.50;55.40;101137.94;5037795;23;20110;-96
2023/03/11 12:43:34;;;;;;;4.13;1.10;;;;;;;6.54;55.50;101140.72;4923657;23;20056;-65
2023/03/11 12:46:06;;;;;;;4.28;1.30;;;;;;;6.67;56.43;101130.94;4911586;29;20024;-65
2023/03/11 12:48:39;;;;;;;3.45;1.30;;;;;;;6.74;56.40;101130.38;5283459;23;20037;-65
2023/03/11 12:51:04;;;;;;;5.05;1.50;;;;;;;6.88;59.98;101136.16;5019086;23;20157;-65